Terminal Aerodrome Forecast
Issued by NWS

Home | Current Version | Previous Version | Text Only | Print | Product List | Glossary On
Versions: 1 2 3 4 5 6 7 8 9 10 11 12 13 14
400
FTUS46 KMTR 040541
TAFSNS
TAF
KSNS 040541Z 0406/0506 29006KT P6SM SCT012 BKN100
     FM040800 VRB03KT P6SM OVC010
     FM041200 VRB02KT P6SM OVC007
     FM041900 27007KT P6SM VCSH SCT012 BKN080=

USA.gov is the U.S. government's official web portal to all federal, state and local government web resources and services.